Time;durP1;ratioP1;P1;durP2;ratioP2;P2;SDS_P1;SDS_P2;PMS_P1;PMS_P2;Temp;Humidity;BMP_temperature;BMP_pressure;BME280_temperature;BME280_humidity;BME280_pressure;Samples;Min_cycle;Max_cycle;Signal;HPM_P1;HPM_P2
2023/01/29 00:01:27;;;;;;;19.05;12.85;;;3.70;99.90;;;;;;5073273;28;20074;-71
2023/01/29 00:03:53;;;;;;;25.00;13.88;;;3.70;99.90;;;;;;5073333;28;20036;-71
2023/01/29 00:06:19;;;;;;;21.80;13.27;;;3.60;99.90;;;;;;5073332;28;20049;-72
2023/01/29 00:08:45;;;;;;;18.58;13.30;;;3.60;99.90;;;;;;5074151;28;20033;-72
2023/01/29 00:11:11;;;;;;;17.83;12.68;;;3.60;99.90;;;;;;5073126;28;20390;-71
2023/01/29 00:13:37;;;;;;;19.83;12.93;;;3.60;99.90;;;;;;5073417;28;20109;-71
2023/01/29 00:16:03;;;;;;;18.15;13.10;;;3.60;99.90;;;;;;5073200;28;20074;-71
2023/01/29 00:18:29;;;;;;;17.15;12.82;;;3.70;99.90;;;;;;5073155;28;20081;-72
2023/01/29 00:20:55;;;;;;;19.48;14.48;;;3.60;99.90;;;;;;5073122;28;20045;-71
2023/01/29 00:23:21;;;;;;;19.20;13.52;;;3.70;99.90;;;;;;5073367;28;20396;-72
2023/01/29 00:25:46;;;;;;;19.67;13.60;;;3.70;99.90;;;;;;5056340;28;20537;-71
2023/01/29 00:28:12;;;;;;;19.55;14.00;;;3.80;99.90;;;;;;5073055;28;20044;-71
2023/01/29 00:30:38;;;;;;;17.33;12.57;;;3.80;99.90;;;;;;5073108;28;20071;-71
2023/01/29 00:33:04;;;;;;;18.13;12.98;;;3.80;99.90;;;;;;5073139;28;20048;-71
2023/01/29 00:35:31;;;;;;;20.17;14.13;;;3.90;99.90;;;;;;5056170;28;20040;-72
2023/01/29 00:37:57;;;;;;;20.98;13.35;;;3.90;99.90;;;;;;5073099;28;20036;-72
2023/01/29 00:40:24;;;;;;;20.30;13.57;;;3.90;99.90;;;;;;5072642;28;20391;-71
2023/01/29 00:45:38;;;;;;;20.35;14.68;;;3.90;99.90;;;;;;5072773;28;20040;-71
2023/01/29 00:48:04;;;;;;;20.90;15.00;;;4.00;99.90;;;;;;5072956;28;20032;-71
2023/01/29 00:50:30;;;;;;;18.92;14.30;;;3.90;99.90;;;;;;5036623;28;1041646;-71
2023/01/29 00:52:56;;;;;;;17.98;13.85;;;4.00;99.90;;;;;;5073580;28;20124;-71
2023/01/29 00:55:22;;;;;;;23.75;14.93;;;4.00;99.90;;;;;;5073614;28;20115;-71
2023/01/29 00:57:48;;;;;;;22.42;13.90;;;4.00;99.90;;;;;;5073776;28;20106;-72
2023/01/29 01:00:16;;;;;;;18.92;14.38;;;4.00;99.90;;;;;;5073560;28;20566;-71
2023/01/29 01:05:26;;;;;;;20.50;14.40;;;4.00;99.90;;;;;;5073700;28;20071;-71
2023/01/29 01:07:55;;;;;;;22.50;14.35;;;4.00;99.90;;;;;;5073307;28;20501;-71
2023/01/29 01:10:25;;;;;;;17.35;13.93;;;4.10;99.90;;;;;;5073436;28;20501;-71
2023/01/29 01:12:57;;;;;;;23.05;15.52;;;4.00;99.90;;;;;;5073457;28;20540;-71
2023/01/29 01:15:26;;;;;;;22.42;14.55;;;4.00;99.90;;;;;;5073167;28;20037;-71
2023/01/29 01:17:54;;;;;;;23.08;15.27;;;4.00;99.90;;;;;;5073101;28;20043;-71
2023/01/29 01:20:20;;;;;;;22.77;15.73;;;4.00;99.90;;;;;;5072211;28;20052;-71
2023/01/29 01:22:45;;;;;;;20.52;14.93;;;4.00;99.90;;;;;;5073141;28;20041;-71
2023/01/29 01:25:11;;;;;;;22.13;15.80;;;4.00;99.90;;;;;;5072927;28;20041;-71
2023/01/29 01:27:39;;;;;;;22.25;15.18;;;4.00;99.90;;;;;;5072876;28;20043;-71
2023/01/29 01:30:10;;;;;;;19.33;14.55;;;4.00;99.90;;;;;;5073041;28;20048;-71
2023/01/29 01:32:36;;;;;;;22.73;15.70;;;4.00;99.90;;;;;;5072877;28;20047;-71
2023/01/29 01:35:02;;;;;;;22.52;14.98;;;4.00;99.90;;;;;;5072772;28;20056;-71
2023/01/29 01:37:28;;;;;;;20.95;15.00;;;4.00;99.90;;;;;;5072760;28;20040;-71
2023/01/29 01:39:56;;;;;;;24.38;15.82;;;3.90;99.90;;;;;;5072802;28;22007;-71
2023/01/29 01:42:29;;;;;;;24.17;15.63;;;3.90;99.90;;;;;;5072644;28;20044;-72
2023/01/29 01:45:06;;;;;;;21.67;15.50;;;3.90;99.90;;;;;;5072622;28;20123;-71
2023/01/29 01:47:41;;;;;;;19.50;14.90;;;3.90;99.90;;;;;;5072834;28;20036;-72
2023/01/29 01:50:16;;;;;;;21.40;15.15;;;3.90;99.90;;;;;;5072316;28;20547;-71
2023/01/29 01:52:47;;;;;;;24.67;15.50;;;3.90;99.90;;;;;;5072752;28;20067;-71
2023/01/29 01:55:16;;;;;;;18.92;14.98;;;3.90;99.90;;;;;;5072674;28;20091;-71
2023/01/29 01:57:45;;;;;;;22.50;14.77;;;3.90;99.90;;;;;;5072784;28;20044;-71
2023/01/29 02:00:15;;;;;;;20.75;15.40;;;4.00;99.90;;;;;;5072167;28;20072;-71
2023/01/29 02:11:16;;;;;;;23.88;14.85;;;4.00;99.90;;;;;;5072293;28;20051;-71
2023/01/29 02:13:42;;;;;;;22.50;15.05;;;4.00;99.90;;;;;;5072108;28;20470;-71
2023/01/29 02:16:08;;;;;;;23.90;15.65;;;4.00;99.90;;;;;;5072348;28;20405;-71
2023/01/29 02:18:36;;;;;;;20.55;14.82;;;4.00;99.90;;;;;;5072059;28;20490;-72
2023/01/29 02:21:32;;;;;;;21.98;14.95;;;4.00;99.90;;;;;;5071879;28;20079;-71
2023/01/29 02:24:29;;;;;;;19.88;15.07;;;4.10;99.90;;;;;;5072002;28;20071;-71
2023/01/29 02:27:07;;;;;;;21.20;14.25;;;4.10;99.90;;;;;;5071988;28;20036;-71
2023/01/29 02:29:57;;;;;;;20.08;14.63;;;4.10;99.90;;;;;;5072141;28;20056;-71
2023/01/29 02:32:30;;;;;;;20.65;14.52;;;4.10;99.90;;;;;;5072088;28;20123;-71
2023/01/29 02:35:30;;;;;;;19.80;14.00;;;4.10;99.90;;;;;;5071902;28;20079;-71
2023/01/29 02:38:08;;;;;;;21.05;14.27;;;4.10;99.90;;;;;;5071851;28;20488;-72
2023/01/29 02:40:41;;;;;;;18.58;14.98;;;4.10;99.90;;;;;;5071760;28;20040;-71
2023/01/29 02:43:44;;;;;;;19.95;14.48;;;4.10;99.90;;;;;;5072126;28;20055;-71
2023/01/29 02:46:20;;;;;;;22.42;15.23;;;4.10;99.90;;;;;;5071851;28;20497;-71
2023/01/29 02:49:13;;;;;;;19.45;14.50;;;4.00;99.90;;;;;;5072043;28;20044;-71
2023/01/29 02:51:53;;;;;;;18.75;14.23;;;4.10;99.90;;;;;;5054632;28;20049;-72
2023/01/29 02:54:37;;;;;;;21.00;15.68;;;4.00;99.90;;;;;;5071746;28;20079;-71
2023/01/29 02:57:16;;;;;;;20.65;14.68;;;4.10;99.90;;;;;;5071677;28;20036;-71
2023/01/29 03:00:05;;;;;;;22.35;15.23;;;4.00;99.90;;;;;;5071526;28;20044;-71
2023/01/29 03:02:55;;;;;;;21.25;14.73;;;4.00;99.90;;;;;;5054947;28;20040;-72
2023/01/29 03:05:35;;;;;;;20.05;14.85;;;3.90;99.90;;;;;;5071918;28;20036;-72
2023/01/29 03:08:08;;;;;;;23.92;15.07;;;3.90;99.90;;;;;;5055095;28;20060;-72
2023/01/29 03:10:39;;;;;;;20.63;13.93;;;3.90;99.90;;;;;;5071641;28;20046;-71
2023/01/29 03:13:07;;;;;;;19.70;14.75;;;4.00;99.90;;;;;;5071757;28;20040;-71
2023/01/29 03:15:45;;;;;;;22.83;16.15;;;3.90;99.90;;;;;;5071459;28;20036;-71
2023/01/29 03:18:16;;;;;;;20.55;15.43;;;4.00;99.90;;;;;;5071769;28;20044;-72
2023/01/29 03:20:49;;;;;;;19.67;15.02;;;3.90;99.90;;;;;;5071337;28;20052;-71
2023/01/29 03:23:22;;;;;;;19.55;14.20;;;3.90;99.90;;;;;;5071492;28;20044;-71
2023/01/29 03:34:17;;;;;;;19.95;14.27;;;3.90;99.90;;;;;;5071338;28;20080;-71
2023/01/29 03:36:54;;;;;;;;;;;3.90;99.90;;;;;;5071718;28;20040;-72
2023/01/29 03:39:20;;;;;;;19.35;14.73;;;3.80;99.90;;;;;;5071157;28;19970;-71
2023/01/29 03:42:04;;;;;;;20.25;14.52;;;3.80;99.90;;;;;;5071153;28;20119;-71
2023/01/29 03:44:45;;;;;;;19.42;14.30;;;3.80;99.90;;;;;;5072908;28;20086;-71
2023/01/29 03:47:21;;;;;;;19.63;13.93;;;3.90;99.90;;;;;;5074834;28;20036;-71
2023/01/29 03:50:12;;;;;;;19.77;13.88;;;3.90;99.90;;;;;;5074622;28;20040;-71
2023/01/29 03:52:50;;;;;;;20.92;14.65;;;3.90;99.90;;;;;;5074775;28;20082;-71
2023/01/29 03:55:23;;;;;;;21.38;14.63;;;3.90;99.90;;;;;;5058077;28;20064;-71
2023/01/29 03:58:03;;;;;;;20.05;15.00;;;3.90;99.90;;;;;;5074702;28;20075;-72
2023/01/29 04:00:39;;;;;;;19.60;15.20;;;3.90;99.90;;;;;;5074713;28;20044;-71
2023/01/29 04:03:16;;;;;;;18.95;15.35;;;3.90;99.90;;;;;;5074600;28;20044;-71
2023/01/29 04:05:51;;;;;;;19.80;15.25;;;4.00;99.90;;;;;;5074534;28;20497;-72
2023/01/29 04:08:26;;;;;;;22.45;15.63;;;4.00;99.90;;;;;;5074780;28;20047;-72
2023/01/29 04:10:56;;;;;;;19.80;14.93;;;3.90;99.90;;;;;;5074625;28;20032;-71
2023/01/29 04:13:22;;;;;;;22.08;14.90;;;4.00;99.90;;;;;;5074358;28;20500;-72
2023/01/29 04:15:58;;;;;;;19.65;16.02;;;4.00;99.90;;;;;;5074796;28;20124;-71
2023/01/29 04:18:24;;;;;;;19.80;15.70;;;4.00;99.90;;;;;;5074550;28;20041;-72
2023/01/29 04:20:50;;;;;;;19.92;15.75;;;4.00;99.90;;;;;;5074135;28;20524;-71
2023/01/29 04:23:24;;;;;;;22.65;15.77;;;4.00;99.90;;;;;;5074441;28;20106;-71
2023/01/29 04:26:07;;;;;;;20.45;15.90;;;4.00;99.90;;;;;;5074164;28;20033;-71
2023/01/29 04:29:02;;;;;;;22.55;16.20;;;4.10;99.90;;;;;;5074186;28;20044;-71
2023/01/29 04:31:33;;;;;;;21.88;16.83;;;4.10;99.90;;;;;;5074090;28;20055;-71
2023/01/29 04:34:19;;;;;;;21.48;16.38;;;4.00;99.90;;;;;;5074061;28;20041;-71
2023/01/29 04:37:33;;;;;;;21.85;16.35;;;4.10;99.90;;;;;;5074256;28;20041;-71
2023/01/29 04:40:27;;;;;;;23.10;17.17;;;4.10;99.90;;;;;;5051567;28;20052;-71
2023/01/29 04:43:18;;;;;;;23.65;17.98;;;4.10;99.90;;;;;;5068129;28;20052;-71
2023/01/29 04:46:02;;;;;;;21.13;17.73;;;4.10;99.90;;;;;;5057414;28;20501;-71
2023/01/29 04:49:00;;;;;;;21.05;17.58;;;4.10;99.90;;;;;;5073767;28;20051;-71
2023/01/29 04:51:42;;;;;;;22.77;18.10;;;4.10;99.90;;;;;;5073551;28;20052;-71
2023/01/29 04:54:30;;;;;;;25.70;18.13;;;4.10;99.90;;;;;;5073628;28;20084;-71
2023/01/29 04:57:09;;;;;;;22.40;17.75;;;4.10;99.90;;;;;;5043257;28;20071;-71
2023/01/29 04:59:41;;;;;;;26.15;18.45;;;4.20;99.90;;;;;;5073507;28;20127;-71
2023/01/29 05:02:10;;;;;;;23.67;17.55;;;4.20;99.90;;;;;;5073434;28;20040;-72
2023/01/29 05:04:38;;;;;;;23.30;17.83;;;4.20;99.90;;;;;;5073445;28;20045;-72
2023/01/29 05:07:07;;;;;;;23.60;17.98;;;4.20;99.90;;;;;;5073621;28;20045;-72
2023/01/29 05:09:35;;;;;;;21.98;18.20;;;4.20;99.90;;;;;;5073223;28;20119;-71
2023/01/29 05:12:02;;;;;;;22.50;17.88;;;4.20;99.90;;;;;;5073267;28;20097;-72
2023/01/29 05:14:32;;;;;;;24.02;17.70;;;4.20;99.90;;;;;;5073449;28;20051;-71
2023/01/29 05:17:04;;;;;;;24.83;17.65;;;4.30;99.90;;;;;;5073189;28;20493;-71
2023/01/29 05:19:29;;;;;;;22.67;17.98;;;4.20;99.90;;;;;;5073074;28;20123;-71
2023/01/29 05:21:56;;;;;;;25.40;18.30;;;4.20;99.90;;;;;;5073024;28;20132;-71
2023/01/29 05:24:25;;;;;;;22.88;18.67;;;4.20;99.90;;;;;;5073282;28;20451;-71
2023/01/29 05:29:41;;;;;;;22.70;18.48;;;4.20;99.90;;;;;;5072872;28;20041;-71
2023/01/29 05:32:07;;;;;;;23.83;18.67;;;4.20;99.90;;;;;;5073099;28;20045;-71
2023/01/29 05:34:33;;;;;;;24.60;19.17;;;4.10;99.90;;;;;;5072789;28;20060;-71
2023/01/29 05:36:58;;;;;;;23.63;18.83;;;4.20;99.90;;;;;;5072738;28;20040;-71
2023/01/29 05:39:24;;;;;;;23.50;18.10;;;4.10;99.90;;;;;;5072629;28;20052;-71
2023/01/29 05:41:50;;;;;;;24.15;18.95;;;4.10;99.90;;;;;;5072564;28;20048;-71
2023/01/29 05:44:15;;;;;;;23.25;19.25;;;4.10;99.90;;;;;;5072632;28;20052;-71
2023/01/29 05:46:41;;;;;;;22.65;18.55;;;4.20;99.90;;;;;;5072585;28;20407;-71
2023/01/29 05:49:06;;;;;;;22.90;19.73;;;4.10;99.90;;;;;;5073695;28;20032;-70
2023/01/29 05:51:32;;;;;;;22.98;19.55;;;4.10;99.90;;;;;;5072316;28;20122;-71
2023/01/29 05:53:58;;;;;;;25.27;19.13;;;4.10;99.90;;;;;;5072452;28;20036;-71
2023/01/29 05:56:24;;;;;;;24.02;20.58;;;4.10;99.90;;;;;;5072673;28;20032;-72
2023/01/29 05:58:50;;;;;;;24.73;19.90;;;4.10;99.90;;;;;;5072308;28;20501;-72
2023/01/29 06:01:21;;;;;;;24.75;19.40;;;4.10;99.90;;;;;;5072136;28;20089;-71
2023/01/29 06:03:47;;;;;;;23.63;19.38;;;4.10;99.90;;;;;;5072288;28;20054;-71
2023/01/29 06:06:13;;;;;;;23.10;18.83;;;4.10;99.90;;;;;;5055422;28;20123;-71
2023/01/29 06:08:39;;;;;;;24.20;20.02;;;4.10;99.90;;;;;;5072016;28;20079;-71
2023/01/29 06:11:10;;;;;;;24.13;19.58;;;4.00;99.90;;;;;;5072346;28;20079;-71
2023/01/29 06:13:36;;;;;;;26.17;20.25;;;4.10;99.90;;;;;;5072127;28;20429;-71
2023/01/29 06:16:06;;;;;;;23.15;20.25;;;4.10;99.90;;;;;;5072070;28;20044;-71
2023/01/29 06:18:32;;;;;;;26.95;20.58;;;4.10;99.90;;;;;;5072084;28;20042;-71
2023/01/29 06:21:07;;;;;;;24.77;20.23;;;4.10;99.90;;;;;;5071944;28;20052;-71
2023/01/29 06:23:32;;;;;;;24.65;20.42;;;4.10;99.90;;;;;;5072353;28;20044;-71
2023/01/29 06:26:00;;;;;;;24.25;19.65;;;4.00;99.90;;;;;;5072021;28;20094;-71
2023/01/29 06:28:25;;;;;;;25.95;21.00;;;4.10;99.90;;;;;;5072220;28;20073;-71
2023/01/29 06:30:51;;;;;;;27.20;20.92;;;4.10;99.90;;;;;;5072131;28;20454;-69
2023/01/29 06:33:16;;;;;;;27.30;21.15;;;4.00;99.90;;;;;;5071911;28;20044;-69
2023/01/29 06:35:42;;;;;;;27.42;20.40;;;4.00;99.90;;;;;;5071856;28;20044;-69
2023/01/29 06:38:07;;;;;;;27.40;20.95;;;4.00;99.90;;;;;;5071892;28;20048;-69
2023/01/29 06:40:33;;;;;;;26.35;20.60;;;4.00;99.90;;;;;;5071905;28;20044;-69
2023/01/29 06:43:02;;;;;;;26.25;21.20;;;4.00;99.90;;;;;;5071813;28;20044;-69
2023/01/29 06:45:27;;;;;;;26.60;21.45;;;4.00;99.90;;;;;;5071746;28;20040;-69
2023/01/29 06:47:53;;;;;;;27.42;21.83;;;4.00;99.90;;;;;;5071774;28;20059;-69
2023/01/29 06:50:18;;;;;;;27.95;21.15;;;4.00;99.90;;;;;;5071555;28;20102;-69
2023/01/29 06:52:44;;;;;;;25.83;21.27;;;3.90;99.90;;;;;;5071714;28;20075;-69
2023/01/29 06:55:09;;;;;;;26.48;21.13;;;4.00;99.90;;;;;;5071702;28;20123;-69
2023/01/29 06:57:35;;;;;;;26.35;21.95;;;4.00;99.90;;;;;;5071917;28;20040;-70
2023/01/29 07:00:01;;;;;;;28.67;21.70;;;4.00;99.90;;;;;;5071514;28;20563;-69
2023/01/29 07:02:27;;;;;;;25.55;20.73;;;4.00;99.90;;;;;;5071579;28;20102;-69
2023/01/29 07:04:52;;;;;;;27.30;21.85;;;4.00;99.90;;;;;;5071621;28;20455;-69
2023/01/29 07:07:18;;;;;;;27.10;21.30;;;3.90;99.90;;;;;;5071592;28;20041;-69
2023/01/29 07:09:43;;;;;;;27.05;21.23;;;3.90;99.90;;;;;;5071443;28;20032;-69
2023/01/29 07:12:10;;;;;;;27.10;21.35;;;4.00;99.90;;;;;;5071830;28;20041;-69
2023/01/29 07:14:36;;;;;;;26.48;21.55;;;3.90;99.90;;;;;;5071515;28;20074;-69
2023/01/29 07:17:01;;;;;;;27.83;21.75;;;4.00;99.90;;;;;;5071439;28;20045;-69
2023/01/29 07:19:27;;;;;;;27.00;21.73;;;4.00;99.90;;;;;;5073040;28;20040;-69
2023/01/29 07:21:52;;;;;;;27.85;22.38;;;4.00;99.90;;;;;;5075276;28;20044;-69
2023/01/29 07:24:18;;;;;;;28.40;22.55;;;3.90;99.90;;;;;;5075316;28;20071;-69
2023/01/29 07:26:44;;;;;;;29.25;22.98;;;3.90;99.90;;;;;;5075230;28;20167;-69
2023/01/29 07:29:10;;;;;;;30.95;22.40;;;3.90;99.90;;;;;;5076720;28;20040;-69
2023/01/29 07:31:35;;;;;;;31.00;23.10;;;3.90;99.90;;;;;;5075396;28;20043;-71
2023/01/29 07:34:01;;;;;;;32.17;23.08;;;3.90;99.90;;;;;;5075209;28;20527;-72
2023/01/29 07:36:27;;;;;;;28.95;23.27;;;3.90;99.90;;;;;;5075310;28;20126;-72
2023/01/29 07:38:53;;;;;;;28.98;23.50;;;4.00;99.90;;;;;;5074994;28;20048;-72
2023/01/29 07:41:18;;;;;;;28.85;22.85;;;3.90;99.90;;;;;;5074836;28;20047;-71
2023/01/29 07:43:44;;;;;;;29.70;23.13;;;3.90;99.90;;;;;;5074946;28;20484;-71
2023/01/29 07:46:10;;;;;;;31.25;23.05;;;3.90;99.90;;;;;;5075029;28;20040;-71
2023/01/29 07:48:35;;;;;;;31.90;23.50;;;3.90;99.90;;;;;;5074829;28;20036;-71
2023/01/29 07:51:01;;;;;;;32.20;23.63;;;3.90;99.90;;;;;;5074783;28;20410;-71
2023/01/29 07:53:27;;;;;;;29.20;23.40;;;3.90;99.90;;;;;;5074730;28;20128;-71
2023/01/29 07:55:53;;;;;;;31.23;24.10;;;3.90;99.90;;;;;;5075975;28;20044;-71
2023/01/29 07:58:18;;;;;;;32.67;24.95;;;3.90;99.90;;;;;;5074669;28;20036;-71
2023/01/29 08:00:44;;;;;;;31.23;24.38;;;3.90;99.90;;;;;;5074470;28;20036;-71
2023/01/29 08:03:13;;;;;;;29.88;23.65;;;3.90;99.90;;;;;;5074527;28;20124;-71
2023/01/29 08:05:38;;;;;;;32.28;24.42;;;3.90;99.90;;;;;;5076023;28;20067;-71
2023/01/29 08:08:04;;;;;;;31.95;23.90;;;3.90;99.90;;;;;;5074792;28;20044;-71
2023/01/29 08:10:30;;;;;;;34.10;24.42;;;3.90;99.90;;;;;;5074422;28;20409;-71
2023/01/29 08:12:57;;;;;;;32.28;24.60;;;3.90;99.90;;;;;;5074409;28;20119;-71
2023/01/29 08:15:23;;;;;;;32.35;25.67;;;3.80;99.90;;;;;;5074364;28;20509;-71
2023/01/29 08:17:49;;;;;;;33.65;24.67;;;3.80;99.90;;;;;;5075906;28;20041;-71
2023/01/29 08:20:15;;;;;;;34.25;25.83;;;3.80;99.90;;;;;;5074397;28;20162;-71
2023/01/29 08:22:40;;;;;;;33.45;25.00;;;3.80;99.90;;;;;;5074292;28;20489;-70
2023/01/29 08:25:06;;;;;;;32.20;25.45;;;3.80;99.90;;;;;;5074197;28;20404;-70
2023/01/29 08:27:32;;;;;;;34.13;26.20;;;3.90;99.90;;;;;;5074240;28;20052;-71
2023/01/29 08:29:58;;;;;;;32.25;25.92;;;3.90;99.90;;;;;;5075434;28;20032;-71
2023/01/29 08:32:24;;;;;;;34.75;26.27;;;3.90;99.90;;;;;;5074305;28;20084;-70
2023/01/29 08:34:49;;;;;;;35.08;26.48;;;4.00;99.90;;;;;;5074033;28;20037;-71
2023/01/29 08:37:15;;;;;;;33.85;24.70;;;4.00;99.90;;;;;;5073987;28;20043;-71
2023/01/29 08:39:40;;;;;;;33.65;26.17;;;4.00;99.90;;;;;;5074168;28;20044;-72
2023/01/29 08:42:06;;;;;;;36.95;25.33;;;4.10;99.90;;;;;;5073770;28;20476;-71
2023/01/29 08:44:32;;;;;;;33.65;25.00;;;4.10;99.90;;;;;;5073824;28;20040;-71
2023/01/29 08:46:57;;;;;;;37.20;26.00;;;4.10;99.90;;;;;;5074023;28;20094;-71
2023/01/29 08:49:23;;;;;;;34.60;25.95;;;4.10;99.90;;;;;;5073672;28;20486;-71
2023/01/29 08:51:50;;;;;;;35.70;26.30;;;4.20;99.90;;;;;;5073509;28;20048;-71
2023/01/29 08:54:16;;;;;;;32.75;24.60;;;4.20;99.90;;;;;;5073657;28;20044;-71
2023/01/29 08:56:42;;;;;;;36.35;26.23;;;4.20;99.90;;;;;;5073902;28;20420;-71
2023/01/29 08:59:12;;;;;;;35.70;25.35;;;4.20;99.90;;;;;;5074978;28;20071;-71
2023/01/29 09:01:37;;;;;;;34.20;26.83;;;4.20;99.90;;;;;;5073437;28;20493;-71
2023/01/29 09:04:03;;;;;;;33.65;25.88;;;4.10;99.90;;;;;;5073723;28;20040;-71
2023/01/29 09:06:28;;;;;;;35.88;26.65;;;4.10;99.90;;;;;;5073415;28;20493;-71
2023/01/29 09:08:54;;;;;;;36.38;26.75;;;4.20;99.90;;;;;;5073601;28;20059;-71
2023/01/29 09:11:19;;;;;;;37.80;26.30;;;4.20;99.90;;;;;;5073487;28;20036;-71
2023/01/29 09:13:45;;;;;;;34.88;25.35;;;4.20;99.90;;;;;;5073285;28;20508;-71
2023/01/29 09:16:11;;;;;;;33.83;26.05;;;4.20;99.90;;;;;;5073201;28;20036;-71
2023/01/29 09:18:36;;;;;;;37.05;26.05;;;4.20;99.90;;;;;;5074649;28;20074;-71
2023/01/29 09:21:02;;;;;;;35.33;26.20;;;4.20;99.90;;;;;;5072963;28;20044;-71
2023/01/29 09:23:29;;;;;;;37.80;26.63;;;4.20;99.90;;;;;;5073033;28;20082;-71
2023/01/29 09:25:55;;;;;;;34.25;26.52;;;4.30;99.90;;;;;;5073242;28;20041;-71
2023/01/29 09:28:21;;;;;;;35.83;26.13;;;4.20;99.90;;;;;;5072956;28;20044;-71
2023/01/29 09:30:47;;;;;;;36.60;27.30;;;4.30;99.90;;;;;;5072831;28;20091;-71
2023/01/29 09:33:12;;;;;;;37.28;26.65;;;4.30;99.90;;;;;;5072837;28;20051;-71
2023/01/29 09:35:42;;;;;;;38.08;26.90;;;4.20;99.90;;;;;;5072813;28;20089;-71
2023/01/29 09:38:09;;;;;;;36.50;26.35;;;4.20;99.90;;;;;;5073994;28;20037;-71
2023/01/29 09:41:06;;;;;;;40.47;27.70;;;4.20;99.90;;;;;;5072549;28;20045;-71
2023/01/29 09:43:49;;;;;;;36.00;27.02;;;4.30;99.90;;;;;;5072276;28;20043;-71
2023/01/29 09:46:29;;;;;;;38.47;26.88;;;4.30;99.90;;;;;;5072645;28;20070;-71
2023/01/29 09:49:15;;;;;;;35.17;26.48;;;4.20;99.90;;;;;;5072567;28;20508;-71
2023/01/29 09:51:46;;;;;;;34.47;26.40;;;4.20;99.90;;;;;;5041947;28;20055;-71
2023/01/29 09:54:28;;;;;;;36.50;28.00;;;4.20;99.90;;;;;;5072718;28;20044;-71
2023/01/29 09:56:55;;;;;;;34.22;26.40;;;4.30;99.90;;;;;;5073702;28;20036;-71
2023/01/29 09:59:24;;;;;;;37.35;27.70;;;4.30;99.90;;;;;;5072290;28;20036;-71
2023/01/29 10:02:01;;;;;;;37.63;26.50;;;4.40;99.90;;;;;;5073473;28;20094;-71
2023/01/29 10:04:42;;;;;;;36.83;26.50;;;4.40;99.90;;;;;;5073415;28;20048;-71
2023/01/29 10:07:43;;;;;;;33.72;26.35;;;4.50;99.90;;;;;;5072328;28;20036;-71
2023/01/29 10:10:24;;;;;;;35.15;26.70;;;4.40;99.90;;;;;;5072389;28;20374;-71
2023/01/29 10:12:52;;;;;;;35.83;27.13;;;4.40;99.90;;;;;;5055484;28;20405;-71
2023/01/29 10:15:49;;;;;;;39.25;27.13;;;4.50;99.90;;;;;;5073363;28;20493;-71
2023/01/29 10:18:35;;;;;;;34.08;26.23;;;4.40;99.90;;;;;;5055444;28;20043;-71
2023/01/29 10:21:22;;;;;;;36.90;26.40;;;4.40;99.90;;;;;;5071977;28;20040;-71
2023/01/29 10:23:53;;;;;;;38.00;26.25;;;4.50;99.90;;;;;;5073290;28;20090;-71
2023/01/29 10:26:23;;;;;;;33.50;24.90;;;4.50;99.90;;;;;;5073896;28;20071;-71
2023/01/29 10:28:51;;;;;;;36.25;27.38;;;4.50;99.90;;;;;;5071964;28;20413;-71
2023/01/29 10:31:23;;;;;;;34.72;26.63;;;4.50;99.90;;;;;;5071860;28;20051;-71
2023/01/29 10:34:24;;;;;;;32.03;26.00;;;4.50;99.90;;;;;;5071986;28;20055;-71
2023/01/29 10:36:50;;;;;;;35.53;26.38;;;4.50;99.90;;;;;;5067828;28;20087;-71
2023/01/29 10:39:21;;;;;;;36.65;27.48;;;4.50;99.90;;;;;;5072031;28;20460;-70
2023/01/29 10:42:05;;;;;;;35.78;26.25;;;4.60;99.90;;;;;;5071861;28;20052;-71
2023/01/29 10:45:08;;;;;;;36.70;26.88;;;4.50;99.90;;;;;;5073554;28;20115;-71
2023/01/29 10:47:52;;;;;;;35.70;26.38;;;4.60;99.90;;;;;;5072071;28;20071;-71
2023/01/29 10:50:27;;;;;;;37.97;27.67;;;4.50;99.90;;;;;;5071785;28;20387;-71
2023/01/29 10:52:52;;;;;;;37.22;26.40;;;4.50;99.90;;;;;;5072446;28;20048;-71
2023/01/29 10:55:27;;;;;;;34.15;26.30;;;4.50;99.90;;;;;;5075880;28;20048;-73
2023/01/29 10:58:08;;;;;;;33.05;24.88;;;4.50;99.90;;;;;;5075779;28;20433;-75
2023/01/29 11:00:40;;;;;;;34.70;26.33;;;4.50;99.90;;;;;;5075620;28;20072;-75
2023/01/29 11:03:17;;;;;;;34.57;25.83;;;4.50;99.90;;;;;;5059093;28;20043;-75
2023/01/29 11:05:56;;;;;;;36.92;26.88;;;4.60;99.90;;;;;;5059846;28;20041;-75
2023/01/29 11:08:27;;;;;;;35.20;26.55;;;4.50;99.90;;;;;;5075852;28;20468;-76
2023/01/29 11:11:29;;;;;;;37.70;26.35;;;4.60;99.90;;;;;;5075804;28;20122;-76
2023/01/29 11:14:05;;;;;;;34.67;26.70;;;4.60;99.90;;;;;;5018604;28;20052;-76
2023/01/29 11:16:40;;;;;;;37.85;28.33;;;4.60;99.90;;;;;;5018456;28;20045;-75
2023/01/29 11:19:06;;;;;;;41.97;28.15;;;4.60;99.90;;;;;;5018505;28;20061;-75
2023/01/29 11:21:31;;;;;;;37.03;27.92;;;4.60;99.90;;;;;;5018184;28;20053;-76
2023/01/29 11:24:09;;;;;;;38.17;26.65;;;4.60;99.90;;;;;;5018051;28;20050;-76
2023/01/29 11:26:39;;;;;;;36.83;28.00;;;4.60;99.90;;;;;;5018164;28;20426;-75
2023/01/29 11:29:24;;;;;;;37.72;28.13;;;4.60;99.90;;;;;;5017882;28;20037;-75
2023/01/29 11:31:50;;;;;;;38.55;27.20;;;4.60;99.90;;;;;;5017854;28;20502;-75
2023/01/29 11:34:20;;;;;;;40.40;27.52;;;4.70;99.90;;;;;;5017792;28;20083;-75
2023/01/29 11:36:55;;;;;;;38.33;27.98;;;4.70;99.90;;;;;;5018005;28;20049;-75
2023/01/29 11:39:22;;;;;;;37.53;26.85;;;4.70;99.90;;;;;;5017720;28;20052;-75
2023/01/29 11:42:07;;;;;;;34.97;26.17;;;4.70;99.90;;;;;;5017550;28;20486;-75
2023/01/29 11:44:38;;;;;;;38.97;26.42;;;4.80;99.90;;;;;;5017890;28;20050;-72
2023/01/29 11:47:15;;;;;;;34.05;27.63;;;4.80;99.90;;;;;;5017704;28;20045;-71
2023/01/29 11:49:49;;;;;;;39.20;27.73;;;4.90;99.90;;;;;;5032336;28;20053;-72
2023/01/29 11:52:18;;;;;;;37.10;28.52;;;4.80;99.90;;;;;;5074875;28;20436;-72
2023/01/29 11:54:58;;;;;;;38.63;27.60;;;4.80;99.90;;;;;;5074728;28;20044;-72
2023/01/29 11:57:34;;;;;;;35.88;27.05;;;4.80;99.90;;;;;;5075036;28;20119;-72
2023/01/29 12:00:16;;;;;;;37.10;26.35;;;4.80;99.90;;;;;;5074821;28;20052;-72
2023/01/29 12:02:44;;;;;;;34.92;27.20;;;4.80;99.90;;;;;;5074647;28;20120;-72
2023/01/29 12:05:18;;;;;;;37.80;26.58;;;4.80;99.90;;;;;;5075222;28;20044;-72
2023/01/29 12:07:48;;;;;;;36.95;26.35;;;4.80;99.90;;;;;;5074828;28;20404;-72
2023/01/29 12:10:36;;;;;;;34.13;26.15;;;4.80;99.90;;;;;;5074388;28;20040;-72
2023/01/29 12:13:14;;;;;;;34.33;26.17;;;4.90;99.90;;;;;;5074475;28;20075;-72
2023/01/29 12:15:41;;;;;;;32.38;26.08;;;4.90;99.90;;;;;;5074645;28;20499;-72
2023/01/29 12:18:29;;;;;;;32.70;23.83;;;5.00;99.90;;;;;;5074356;28;20033;-72
2023/01/29 12:21:10;;;;;;;31.92;24.88;;;5.00;99.90;;;;;;5075478;28;20072;-72
2023/01/29 12:24:02;;;;;;;36.78;25.73;;;5.00;99.90;;;;;;5074294;28;20162;-72
2023/01/29 12:26:49;;;;;;;33.00;23.63;;;5.10;99.90;;;;;;5074585;28;20063;-72
2023/01/29 12:29:52;;;;;;;34.85;24.30;;;5.10;99.90;;;;;;5074193;28;20047;-72
2023/01/29 12:32:36;;;;;;;30.20;23.97;;;5.10;99.90;;;;;;5074464;28;20521;-72
2023/01/29 12:35:11;;;;;;;31.45;24.23;;;5.10;99.90;;;;;;5074093;28;20056;-71
2023/01/29 12:37:59;;;;;;;30.80;23.75;;;5.10;99.90;;;;;;5074079;28;20048;-72
2023/01/29 12:40:30;;;;;;;29.38;23.33;;;5.10;99.90;;;;;;5073804;28;20044;-72
2023/01/29 12:43:02;;;;;;;31.70;24.20;;;5.10;99.90;;;;;;5073887;28;20048;-72
2023/01/29 12:45:29;;;;;;;35.85;24.83;;;5.10;99.90;;;;;;5073916;28;20044;-72
2023/01/29 12:48:00;;;;;;;35.10;25.90;;;5.00;99.90;;;;;;5073810;28;20044;-72
2023/01/29 12:50:27;;;;;;;37.45;27.15;;;5.00;99.90;;;;;;5073828;28;20098;-72
2023/01/29 12:52:58;;;;;;;38.42;25.92;;;5.00;99.90;;;;;;5073720;28;20045;-72
2023/01/29 12:55:35;;;;;;;33.72;25.65;;;5.10;99.90;;;;;;5073703;28;20052;-72
2023/01/29 12:58:14;;;;;;;34.08;26.02;;;5.00;99.90;;;;;;5073684;28;20076;-72
2023/01/29 13:00:44;;;;;;;35.53;26.45;;;5.00;99.90;;;;;;5074875;28;20044;-72
2023/01/29 13:03:16;;;;;;;36.50;25.63;;;5.10;99.90;;;;;;5073470;28;20079;-72
2023/01/29 13:06:08;;;;;;;36.35;26.92;;;5.00;99.90;;;;;;5073438;28;20044;-72
2023/01/29 13:08:52;;;;;;;38.08;27.65;;;4.90;99.90;;;;;;5073661;28;20033;-72
2023/01/29 13:11:21;;;;;;;38.55;28.42;;;4.90;99.90;;;;;;5073236;28;20050;-72
2023/01/29 13:13:53;;;;;;;43.50;31.13;;;4.80;99.90;;;;;;5073980;28;20048;-72
2023/01/29 13:16:22;;;;;;;39.15;28.70;;;4.80;99.90;;;;;;5072679;28;20499;-72
2023/01/29 13:18:56;;;;;;;41.25;29.23;;;4.70;99.90;;;;;;5073311;28;20044;-72
2023/01/29 13:21:33;;;;;;;41.53;30.30;;;4.70;99.90;;;;;;5073029;28;20048;-71
2023/01/29 13:24:08;;;;;;;40.70;29.30;;;4.70;99.90;;;;;;5073100;28;20520;-71
2023/01/29 13:26:34;;;;;;;40.25;28.42;;;4.70;99.90;;;;;;5073304;28;20037;-71
2023/01/29 13:29:01;;;;;;;39.05;29.20;;;4.60;99.90;;;;;;5072977;28;20500;-71